createdAt,value
2022-12-22T00:00:51.406Z,6.40
2022-12-22T00:01:51.533Z,6.10
2022-12-22T00:02:51.514Z,6.30
2022-12-22T00:03:51.660Z,6.30
2022-12-22T00:04:51.390Z,6.00
2022-12-22T00:05:51.383Z,5.60
2022-12-22T00:06:51.423Z,6.10
2022-12-22T00:07:51.371Z,6.20
2022-12-22T00:08:51.383Z,6.00
2022-12-22T00:09:51.367Z,5.80
2022-12-22T00:10:51.382Z,5.70
2022-12-22T00:11:51.354Z,5.70
2022-12-22T00:12:51.361Z,5.40
2022-12-22T00:13:51.363Z,5.20
2022-12-22T00:14:51.344Z,5.60
2022-12-22T00:15:51.333Z,5.50
2022-12-22T00:16:51.378Z,5.60
2022-12-22T00:17:51.326Z,5.50
2022-12-22T00:18:51.333Z,5.70
2022-12-22T00:19:51.319Z,5.80
2022-12-22T00:20:51.319Z,6.10
2022-12-22T00:21:51.313Z,5.50
2022-12-22T00:22:51.392Z,5.20
2022-12-22T00:23:51.304Z,5.40
2022-12-22T00:24:51.300Z,5.50
2022-12-22T00:25:51.292Z,5.40
2022-12-22T00:26:51.291Z,5.00
2022-12-22T00:27:51.281Z,5.10
2022-12-22T00:28:51.284Z,5.50
2022-12-22T00:29:51.280Z,5.60
2022-12-22T00:30:51.321Z,5.80
2022-12-22T00:31:51.270Z,6.30
2022-12-22T00:32:51.269Z,5.60
2022-12-22T00:33:51.263Z,5.80
2022-12-22T00:34:51.260Z,5.70
2022-12-22T00:35:51.257Z,5.90
2022-12-22T00:36:51.247Z,5.90
2022-12-22T00:37:51.243Z,6.00
2022-12-22T00:38:51.272Z,5.40
2022-12-22T00:39:51.237Z,5.40
2022-12-22T00:40:51.231Z,5.30
2022-12-22T00:41:51.224Z,5.80
2022-12-22T00:42:51.235Z,5.60
2022-12-22T00:43:51.218Z,5.30
2022-12-22T00:44:51.212Z,5.40
2022-12-22T00:45:51.599Z,5.50
2022-12-22T00:46:51.207Z,5.30
2022-12-22T00:47:51.217Z,5.20
2022-12-22T00:48:51.198Z,5.30
2022-12-22T00:49:51.200Z,5.30
2022-12-22T00:50:51.200Z,5.60
2022-12-22T00:51:51.184Z,5.10
2022-12-22T00:52:51.182Z,5.60
2022-12-22T00:53:51.179Z,5.00
2022-12-22T00:54:51.195Z,5.30
2022-12-22T00:55:51.165Z,5.50
2022-12-22T00:56:51.166Z,5.40
2022-12-22T00:57:51.159Z,6.10
2022-12-22T00:58:51.160Z,5.60
2022-12-22T00:59:51.155Z,5.90
2022-12-22T01:00:51.151Z,5.70
2022-12-22T01:01:51.261Z,5.80
2022-12-22T01:02:51.274Z,5.50
2022-12-22T01:03:51.284Z,5.50
2022-12-22T01:04:51.127Z,5.90
2022-12-22T01:05:51.124Z,5.60
2022-12-22T01:06:51.120Z,6.10
2022-12-22T01:07:51.114Z,5.80
2022-12-22T01:08:51.111Z,6.50
2022-12-22T01:09:51.131Z,6.00
2022-12-22T01:10:51.144Z,6.10
2022-12-22T01:11:51.104Z,5.50
2022-12-22T01:12:51.092Z,5.90
2022-12-22T01:13:51.109Z,5.90
2022-12-22T01:14:51.087Z,6.10
2022-12-22T01:15:51.121Z,6.10
2022-12-22T01:16:51.072Z,6.30
2022-12-22T01:17:51.078Z,6.40
2022-12-22T01:18:51.067Z,5.70
2022-12-22T01:19:51.065Z,5.90
2022-12-22T01:20:51.059Z,5.70
2022-12-22T01:21:51.056Z,6.20
2022-12-22T01:22:51.049Z,5.40
2022-12-22T01:23:51.107Z,5.20
2022-12-22T01:24:51.042Z,5.20
2022-12-22T01:25:51.048Z,4.60
2022-12-22T01:26:51.050Z,5.00
2022-12-22T01:27:51.029Z,5.10
2022-12-22T01:28:51.024Z,5.00
2022-12-22T01:29:51.073Z,4.60
2022-12-22T01:30:51.090Z,4.50
2022-12-22T01:31:51.014Z,4.70
2022-12-22T01:32:51.014Z,4.80
2022-12-22T01:33:51.005Z,5.20
2022-12-22T01:34:51.000Z,5.00
2022-12-22T01:35:51.002Z,4.50
2022-12-22T01:36:50.990Z,4.50
2022-12-22T01:37:50.989Z,3.90
2022-12-22T01:38:50.984Z,4.60
2022-12-22T01:39:50.981Z,4.70
2022-12-22T01:40:50.974Z,4.20
2022-12-22T01:41:50.989Z,4.20
2022-12-22T01:42:50.989Z,4.80
2022-12-22T01:43:50.961Z,4.40
2022-12-22T01:44:50.956Z,4.70
2022-12-22T01:45:51.054Z,4.00
2022-12-22T01:46:51.125Z,4.10
2022-12-22T01:47:50.951Z,4.80
2022-12-22T01:48:50.956Z,4.20
2022-12-22T01:49:50.937Z,4.20
2022-12-22T01:50:50.940Z,3.80
2022-12-22T01:51:50.956Z,3.90
2022-12-22T01:52:50.941Z,3.80
2022-12-22T01:53:50.937Z,3.60
2022-12-22T01:54:50.917Z,4.40
2022-12-22T01:55:50.911Z,4.10
2022-12-22T01:56:50.906Z,3.80
2022-12-22T01:57:50.910Z,4.00
2022-12-22T01:58:50.928Z,4.10
2022-12-22T01:59:50.929Z,3.90
2022-12-22T02:00:50.889Z,3.90
2022-12-22T02:01:50.990Z,4.70
2022-12-22T02:02:51.077Z,4.30
2022-12-22T02:03:50.909Z,3.70
2022-12-22T02:04:50.883Z,4.00
2022-12-22T02:05:50.869Z,3.90
2022-12-22T02:06:56.199Z,3.70
2022-12-22T02:07:50.861Z,3.90
2022-12-22T02:08:50.858Z,4.60
2022-12-22T02:09:50.856Z,3.80
2022-12-22T02:10:50.851Z,3.70
2022-12-22T02:11:50.855Z,4.00
2022-12-22T02:12:50.848Z,3.50
2022-12-22T02:13:50.837Z,3.80
2022-12-22T02:14:50.856Z,3.40
2022-12-22T02:15:50.840Z,3.50
2022-12-22T02:16:50.827Z,3.70
2022-12-22T02:17:50.830Z,3.50
2022-12-22T02:18:50.819Z,3.70
2022-12-22T02:19:50.811Z,3.70
2022-12-22T02:20:50.808Z,4.30
2022-12-22T02:21:50.808Z,3.70
2022-12-22T02:22:50.797Z,3.80
2022-12-22T02:23:50.799Z,4.40
2022-12-22T02:24:50.789Z,3.70
2022-12-22T02:25:50.786Z,3.80
2022-12-22T02:26:50.786Z,4.10
2022-12-22T02:27:50.780Z,3.80
2022-12-22T02:28:50.777Z,3.70
2022-12-22T02:29:50.780Z,3.60
2022-12-22T02:30:50.868Z,3.50
2022-12-22T02:31:50.801Z,3.50
2022-12-22T02:32:50.759Z,3.80
2022-12-22T02:33:50.752Z,3.50
2022-12-22T02:34:50.746Z,3.60
2022-12-22T02:35:50.746Z,3.50
2022-12-22T02:36:50.739Z,3.50
2022-12-22T02:37:50.737Z,3.40
2022-12-22T02:38:50.753Z,3.70
2022-12-22T02:39:50.729Z,3.40
2022-12-22T02:40:50.725Z,3.60
2022-12-22T02:41:50.720Z,3.50
2022-12-22T02:42:50.716Z,3.40
2022-12-22T02:43:50.715Z,3.30
2022-12-22T02:44:50.709Z,4.00
2022-12-22T02:45:50.706Z,3.30
2022-12-22T02:46:50.741Z,3.20
2022-12-22T02:47:50.693Z,3.10
2022-12-22T02:48:50.688Z,3.20
2022-12-22T02:49:50.688Z,2.80
2022-12-22T02:50:50.694Z,2.90
2022-12-22T02:51:50.679Z,3.20
2022-12-22T02:52:50.680Z,3.10
2022-12-22T02:53:50.668Z,3.00
2022-12-22T02:54:50.666Z,2.70
2022-12-22T02:55:50.668Z,2.70
2022-12-22T02:56:50.661Z,2.70
2022-12-22T02:57:50.651Z,2.70
2022-12-22T02:58:50.645Z,2.60
2022-12-22T02:59:50.649Z,3.40
2022-12-22T03:00:50.642Z,2.80
2022-12-22T03:01:50.719Z,2.70
2022-12-22T03:02:50.921Z,2.40
2022-12-22T03:03:50.788Z,2.30
2022-12-22T03:04:50.622Z,2.20
2022-12-22T03:05:50.626Z,2.30
2022-12-22T03:06:50.625Z,2.70
2022-12-22T03:07:50.635Z,2.10
2022-12-22T03:08:50.614Z,2.00
2022-12-22T03:09:50.607Z,2.90
2022-12-22T03:10:50.603Z,2.00
2022-12-22T03:11:50.598Z,2.00
2022-12-22T03:12:50.599Z,2.20
2022-12-22T03:13:50.589Z,2.00
2022-12-22T03:14:50.584Z,2.90
2022-12-22T03:15:50.637Z,2.30
2022-12-22T03:16:50.574Z,2.10
2022-12-22T03:17:50.575Z,2.10
2022-12-22T03:18:50.586Z,2.00
2022-12-22T03:19:50.571Z,2.20
2022-12-22T03:20:50.558Z,2.40
2022-12-22T03:21:50.558Z,1.80
2022-12-22T03:22:50.550Z,2.20
2022-12-22T03:23:50.542Z,2.00
2022-12-22T03:24:50.542Z,3.20
2022-12-22T03:25:50.534Z,2.00
2022-12-22T03:26:50.537Z,1.90
2022-12-22T03:27:50.525Z,2.00
2022-12-22T03:28:50.524Z,2.90
2022-12-22T03:29:50.525Z,2.00
2022-12-22T03:30:50.516Z,1.80
2022-12-22T03:31:50.584Z,2.30
2022-12-22T03:32:50.506Z,2.40
2022-12-22T03:33:50.504Z,3.00
2022-12-22T03:34:50.524Z,1.90
2022-12-22T03:35:50.496Z,2.00
2022-12-22T03:36:50.492Z,1.90
2022-12-22T03:37:50.484Z,1.90
2022-12-22T03:38:50.494Z,2.20
2022-12-22T03:39:50.487Z,3.10
2022-12-22T03:40:50.497Z,2.40
2022-12-22T03:41:50.479Z,2.10
2022-12-22T03:42:50.467Z,2.00
2022-12-22T03:43:50.461Z,2.20
2022-12-22T03:44:50.464Z,2.00
2022-12-22T03:45:50.458Z,2.00
2022-12-22T03:46:50.554Z,2.20
2022-12-22T03:47:50.457Z,1.90
2022-12-22T03:48:50.442Z,2.00
2022-12-22T03:49:50.439Z,1.80
2022-12-22T03:50:50.462Z,2.10
2022-12-22T03:51:50.432Z,2.00
2022-12-22T03:52:50.426Z,2.50
2022-12-22T03:53:50.423Z,3.00
2022-12-22T03:54:50.421Z,3.00
2022-12-22T03:55:50.413Z,2.20
2022-12-22T03:56:50.422Z,2.70
2022-12-22T03:57:50.416Z,2.10
2022-12-22T03:58:50.407Z,2.40
2022-12-22T03:59:50.399Z,2.10
2022-12-22T04:00:50.435Z,2.80
2022-12-22T04:01:50.600Z,2.20
2022-12-22T04:02:50.565Z,2.20
2022-12-22T04:03:50.381Z,2.30
2022-12-22T04:04:50.377Z,2.40
2022-12-22T04:05:50.372Z,3.00
2022-12-22T04:06:50.397Z,2.70
2022-12-22T04:07:50.362Z,2.20
2022-12-22T04:08:50.367Z,2.40
2022-12-22T04:09:50.355Z,2.10
2022-12-22T04:10:50.350Z,2.10
2022-12-22T04:11:50.350Z,2.70
2022-12-22T04:12:50.345Z,2.10
2022-12-22T04:13:50.340Z,3.00
2022-12-22T04:14:50.335Z,1.90
2022-12-22T04:15:50.329Z,2.00
2022-12-22T04:16:50.363Z,1.90
2022-12-22T04:17:50.327Z,2.10
2022-12-22T04:18:50.332Z,1.80
2022-12-22T04:19:50.312Z,1.70
2022-12-22T04:20:50.309Z,1.90
2022-12-22T04:21:50.303Z,1.90
2022-12-22T04:22:50.322Z,1.60
2022-12-22T04:23:50.297Z,2.20
2022-12-22T04:24:50.291Z,1.60
2022-12-22T04:25:50.292Z,2.30
2022-12-22T04:26:50.299Z,1.80
2022-12-22T04:27:50.278Z,1.70
2022-12-22T04:28:50.318Z,2.50
2022-12-22T04:29:50.276Z,1.90
2022-12-22T04:30:50.268Z,1.70
2022-12-22T04:31:50.377Z,1.80
2022-12-22T04:32:50.264Z,1.70
2022-12-22T04:33:50.260Z,1.60
2022-12-22T04:34:50.252Z,1.60
2022-12-22T04:35:50.249Z,1.60
2022-12-22T04:36:50.244Z,1.70
2022-12-22T04:37:50.295Z,1.60
2022-12-22T04:38:50.274Z,1.60
2022-12-22T04:39:50.247Z,1.80
2022-12-22T04:40:50.228Z,1.50
2022-12-22T04:41:50.225Z,1.70
2022-12-22T04:42:50.219Z,1.70
2022-12-22T04:43:50.214Z,2.20
2022-12-22T04:44:50.211Z,2.80
2022-12-22T04:45:50.264Z,2.00
2022-12-22T04:46:50.203Z,2.00
2022-12-22T04:47:50.203Z,3.00
2022-12-22T04:48:53.261Z,1.80
2022-12-22T04:49:50.190Z,1.70
2022-12-22T04:50:50.186Z,2.40
2022-12-22T04:51:50.180Z,2.30
2022-12-22T04:52:50.181Z,2.30
2022-12-22T04:53:50.181Z,2.70
2022-12-22T04:54:50.221Z,2.30
2022-12-22T04:55:50.166Z,2.70
2022-12-22T04:56:50.163Z,2.10
2022-12-22T04:57:50.158Z,2.20
2022-12-22T04:58:50.162Z,2.70
2022-12-22T04:59:50.152Z,2.70
2022-12-22T05:00:50.216Z,3.30
2022-12-22T05:01:50.209Z,2.80
2022-12-22T05:02:50.290Z,3.60
2022-12-22T05:03:50.222Z,2.70
2022-12-22T05:04:50.135Z,3.50
2022-12-22T05:05:50.126Z,3.30
2022-12-22T05:06:50.134Z,3.00
2022-12-22T05:07:50.118Z,3.50
2022-12-22T05:08:50.116Z,3.30
2022-12-22T05:09:50.111Z,2.90
2022-12-22T05:10:50.131Z,4.90
2022-12-22T05:11:50.099Z,3.50
2022-12-22T05:12:50.101Z,3.90
2022-12-22T05:13:50.097Z,5.70
2022-12-22T05:14:50.090Z,4.80
2022-12-22T05:15:50.082Z,4.20
2022-12-22T05:16:50.113Z,3.90
2022-12-22T05:17:50.089Z,4.20
2022-12-22T05:18:50.079Z,5.10
2022-12-22T05:19:50.076Z,3.90
2022-12-22T05:20:50.072Z,3.70
2022-12-22T05:21:50.060Z,3.80
2022-12-22T05:22:50.076Z,4.30
2022-12-22T05:23:50.110Z,3.80
2022-12-22T05:24:50.051Z,3.60
2022-12-22T05:25:50.043Z,4.00
2022-12-22T05:26:50.063Z,4.30
2022-12-22T05:27:50.055Z,4.60
2022-12-22T05:28:50.035Z,5.20
2022-12-22T05:29:50.036Z,3.90
2022-12-22T05:30:50.084Z,4.90
2022-12-22T05:31:50.030Z,6.00
2022-12-22T05:32:50.017Z,7.00
2022-12-22T05:33:50.026Z,7.60
2022-12-22T05:34:50.042Z,7.40
2022-12-22T05:35:50.006Z,7.90
2022-12-22T05:36:50.001Z,6.80
2022-12-22T05:37:50.004Z,6.00
2022-12-22T05:38:49.997Z,6.50
2022-12-22T05:39:49.990Z,6.80
2022-12-22T05:40:49.991Z,6.70
2022-12-22T05:41:49.996Z,7.20
2022-12-22T05:42:50.002Z,6.40
2022-12-22T05:43:49.971Z,6.90
2022-12-22T05:44:49.969Z,6.60
2022-12-22T05:45:50.041Z,6.50
2022-12-22T05:46:49.962Z,6.80
2022-12-22T05:47:49.963Z,7.40
2022-12-22T05:48:49.954Z,7.30
2022-12-22T05:49:49.949Z,6.90
2022-12-22T05:50:49.944Z,6.60
2022-12-22T05:51:49.940Z,7.20
2022-12-22T05:52:49.938Z,7.70
2022-12-22T05:53:49.956Z,8.60
2022-12-22T05:54:49.945Z,8.70
2022-12-22T05:55:49.923Z,8.90
2022-12-22T05:56:49.920Z,8.30
2022-12-22T05:57:49.916Z,8.30
2022-12-22T05:58:49.940Z,8.80
2022-12-22T05:59:49.917Z,9.60
2022-12-22T06:00:49.903Z,9.40
2022-12-22T06:01:49.921Z,9.40
2022-12-22T06:02:50.072Z,9.60
2022-12-22T06:03:53.361Z,9.20
2022-12-22T06:04:49.890Z,9.20
2022-12-22T06:05:49.888Z,8.90
2022-12-22T06:06:49.889Z,7.90
2022-12-22T06:07:49.881Z,8.20
2022-12-22T06:08:49.897Z,7.40
2022-12-22T06:09:49.868Z,8.00
2022-12-22T06:10:49.872Z,8.00
2022-12-22T06:11:49.861Z,8.30
2022-12-22T06:12:49.871Z,8.10
2022-12-22T06:13:49.858Z,7.60
2022-12-22T06:14:49.879Z,6.90
2022-12-22T06:15:49.965Z,7.10
2022-12-22T06:16:49.841Z,7.80
2022-12-22T06:17:49.845Z,7.70
2022-12-22T06:18:49.844Z,6.00
2022-12-22T06:19:49.837Z,6.40
2022-12-22T06:20:49.834Z,7.10
2022-12-22T06:21:49.825Z,6.90
2022-12-22T06:22:49.822Z,7.20
2022-12-22T06:23:49.815Z,7.40
2022-12-22T06:24:49.821Z,6.80
2022-12-22T06:25:49.826Z,7.00
2022-12-22T06:26:49.803Z,7.00
2022-12-22T06:27:49.809Z,8.00
2022-12-22T06:28:49.796Z,7.40
2022-12-22T06:29:49.792Z,7.70
2022-12-22T06:30:49.841Z,7.90
2022-12-22T06:31:49.844Z,7.20
2022-12-22T06:32:49.778Z,6.80
2022-12-22T06:33:49.774Z,6.80
2022-12-22T06:34:49.771Z,6.30
2022-12-22T06:35:57.404Z,7.40
2022-12-22T06:36:49.765Z,7.10
2022-12-22T06:37:49.756Z,7.30
2022-12-22T06:38:49.763Z,7.30
2022-12-22T06:39:49.748Z,6.70
2022-12-22T06:40:49.746Z,6.40
2022-12-22T06:41:49.743Z,6.20
2022-12-22T06:42:49.751Z,6.00
2022-12-22T06:43:49.739Z,6.00
2022-12-22T06:44:49.731Z,5.50
2022-12-22T06:45:49.743Z,6.60
2022-12-22T06:46:49.821Z,6.90
2022-12-22T06:47:49.785Z,7.20
2022-12-22T06:48:49.717Z,6.80
2022-12-22T06:49:49.751Z,6.60
2022-12-22T06:50:49.705Z,7.10
2022-12-22T06:51:49.701Z,6.30
2022-12-22T06:52:49.700Z,6.40
2022-12-22T06:53:49.696Z,6.40
2022-12-22T06:54:49.688Z,6.40
2022-12-22T06:55:49.689Z,6.60
2022-12-22T06:56:49.682Z,6.90
2022-12-22T06:57:49.687Z,6.50
2022-12-22T06:58:49.683Z,6.40
2022-12-22T06:59:55.348Z,6.70
2022-12-22T07:00:49.716Z,6.30
2022-12-22T07:01:49.827Z,7.70
2022-12-22T07:02:49.961Z,8.40
2022-12-22T07:03:49.672Z,7.50
2022-12-22T07:04:49.656Z,6.90
2022-12-22T07:05:49.648Z,6.30
2022-12-22T07:06:49.651Z,5.70
2022-12-22T07:07:49.642Z,6.10
2022-12-22T07:08:49.634Z,5.40
2022-12-22T07:09:49.631Z,6.00
2022-12-22T07:10:49.627Z,5.30
2022-12-22T07:11:49.625Z,6.30
2022-12-22T07:12:49.618Z,7.90
2022-12-22T07:13:49.614Z,7.60
2022-12-22T07:14:49.612Z,6.80
2022-12-22T07:15:55.599Z,15.30
2022-12-22T07:16:49.721Z,16.20
2022-12-22T07:17:49.602Z,4.90
2022-12-22T07:18:49.613Z,6.00
2022-12-22T07:19:49.589Z,5.90
2022-12-22T07:20:49.601Z,8.60
2022-12-22T07:21:49.579Z,14.50
2022-12-22T07:22:49.585Z,5.70
2022-12-22T07:23:49.573Z,5.00
2022-12-22T07:24:49.573Z,3.50
2022-12-22T07:25:49.589Z,3.20
2022-12-22T07:26:49.565Z,4.80
2022-12-22T07:27:49.564Z,6.00
2022-12-22T07:28:49.552Z,7.80
2022-12-22T07:29:49.554Z,10.80
2022-12-22T07:30:49.624Z,11.40
2022-12-22T07:31:49.617Z,4.60
2022-12-22T07:32:49.546Z,12.10
2022-12-22T07:33:49.541Z,6.70
2022-12-22T07:34:49.550Z,6.90
2022-12-22T07:35:49.547Z,12.80
2022-12-22T07:36:49.526Z,19.40
2022-12-22T07:37:49.545Z,11.40
2022-12-22T07:38:49.566Z,11.30
2022-12-22T07:39:49.507Z,10.10
2022-12-22T07:40:52.120Z,10.90
2022-12-22T07:41:49.533Z,8.90
2022-12-22T07:42:49.495Z,8.80
2022-12-22T07:43:49.507Z,8.90
2022-12-22T07:44:49.567Z,8.80
2022-12-22T07:45:49.499Z,8.60
2022-12-22T07:46:49.567Z,8.40
2022-12-22T07:47:49.504Z,9.30
2022-12-22T07:48:49.472Z,10.20
2022-12-22T07:49:49.476Z,9.20
2022-12-22T07:50:49.547Z,9.00
2022-12-22T07:51:49.477Z,9.30
2022-12-22T07:52:49.456Z,8.80
2022-12-22T07:53:49.455Z,9.00
2022-12-22T07:54:49.449Z,8.30
2022-12-22T07:55:49.452Z,9.20
2022-12-22T07:56:49.443Z,10.60
2022-12-22T07:57:49.438Z,12.30
2022-12-22T07:58:49.434Z,12.60
2022-12-22T07:59:49.434Z,14.20
2022-12-22T08:00:49.423Z,13.40
2022-12-22T08:01:49.524Z,13.30
2022-12-22T08:02:49.590Z,13.70
2022-12-22T08:03:49.416Z,14.90
2022-12-22T08:04:49.470Z,15.30
2022-12-22T08:05:49.405Z,15.70
2022-12-22T08:06:49.424Z,14.70
2022-12-22T08:07:49.398Z,16.70
2022-12-22T08:08:49.392Z,16.90
2022-12-22T08:09:49.392Z,17.60
2022-12-22T08:10:49.430Z,18.80
2022-12-22T08:11:49.381Z,18.90
2022-12-22T08:12:49.462Z,19.80
2022-12-22T08:13:49.386Z,20.30
2022-12-22T08:14:49.374Z,20.20
2022-12-22T08:15:49.503Z,21.30
2022-12-22T08:16:49.540Z,22.10
2022-12-22T08:17:49.359Z,21.30
2022-12-22T08:18:49.354Z,22.10
2022-12-22T08:19:49.351Z,21.70
2022-12-22T08:20:49.346Z,24.00
2022-12-22T08:21:53.034Z,24.80
2022-12-22T08:22:49.360Z,25.40
2022-12-22T08:23:49.339Z,24.90
2022-12-22T08:24:49.334Z,27.00
2022-12-22T08:25:49.332Z,25.10
2022-12-22T08:26:49.331Z,25.30
2022-12-22T08:27:49.316Z,22.80
2022-12-22T08:28:49.316Z,26.80
2022-12-22T08:29:49.311Z,23.90
2022-12-22T08:30:49.305Z,22.50
2022-12-22T08:31:49.446Z,25.90
2022-12-22T08:32:49.299Z,27.10
2022-12-22T08:33:49.294Z,29.70
2022-12-22T08:34:49.293Z,30.20
2022-12-22T08:35:49.289Z,29.00
2022-12-22T08:36:49.294Z,28.10
2022-12-22T08:37:49.277Z,27.80
2022-12-22T08:38:49.309Z,30.90
2022-12-22T08:39:49.269Z,32.20
2022-12-22T08:40:49.264Z,34.80
2022-12-22T08:41:49.261Z,34.00
2022-12-22T08:42:49.254Z,37.40
2022-12-22T08:43:49.254Z,40.10
2022-12-22T08:44:49.245Z,36.60
2022-12-22T08:45:49.243Z,36.70
2022-12-22T08:46:49.308Z,38.90
2022-12-22T08:47:49.237Z,38.70
2022-12-22T08:48:49.230Z,42.30
2022-12-22T08:49:49.228Z,43.70
2022-12-22T08:50:49.230Z,43.40
2022-12-22T08:51:49.226Z,43.30
2022-12-22T08:52:49.229Z,43.50
2022-12-22T08:54:06.201Z,44.30
2022-12-22T08:54:49.228Z,46.60
2022-12-22T08:55:49.204Z,45.80
2022-12-22T08:56:49.209Z,47.80
2022-12-22T08:57:55.665Z,47.10
2022-12-22T08:58:49.190Z,46.90
2022-12-22T08:59:49.196Z,46.50
2022-12-22T09:00:49.254Z,48.70
2022-12-22T09:01:49.300Z,51.50
2022-12-22T09:02:49.354Z,50.90
2022-12-22T09:03:49.169Z,49.00
2022-12-22T09:04:49.164Z,53.20
2022-12-22T09:05:49.159Z,56.50
2022-12-22T09:06:49.183Z,58.60
2022-12-22T09:07:49.179Z,59.90
2022-12-22T09:08:49.166Z,66.00
2022-12-22T09:09:49.146Z,63.70
2022-12-22T09:10:49.168Z,60.00
2022-12-22T09:11:49.139Z,57.70
2022-12-22T09:12:49.128Z,62.00
2022-12-22T09:13:49.129Z,63.70
2022-12-22T09:14:49.121Z,59.10
2022-12-22T09:15:49.142Z,61.00
2022-12-22T09:16:49.216Z,63.50
2022-12-22T09:17:49.109Z,62.30
2022-12-22T09:18:49.105Z,61.90
2022-12-22T09:19:49.105Z,60.90
2022-12-22T09:20:49.094Z,57.90
2022-12-22T09:21:49.097Z,59.10
2022-12-22T09:22:49.100Z,58.90
2022-12-22T09:23:49.085Z,56.80
2022-12-22T09:24:49.084Z,56.70
2022-12-22T09:25:49.074Z,54.90
2022-12-22T09:26:49.444Z,57.70
2022-12-22T09:27:49.098Z,56.00
2022-12-22T09:28:50.790Z,51.60
2022-12-22T09:29:49.068Z,55.50
2022-12-22T09:30:49.054Z,56.30
2022-12-22T09:31:49.155Z,54.90
2022-12-22T09:32:49.043Z,57.60
2022-12-22T09:33:49.055Z,51.80
2022-12-22T09:34:49.037Z,56.80
2022-12-22T09:35:49.036Z,56.20
2022-12-22T09:36:49.049Z,56.40
2022-12-22T09:37:49.065Z,57.20
2022-12-22T09:38:49.042Z,56.90
2022-12-22T09:39:49.016Z,58.90
2022-12-22T09:40:49.012Z,55.10
2022-12-22T09:41:49.009Z,56.30
2022-12-22T09:42:49.026Z,54.80
2022-12-22T09:43:49.004Z,51.90
2022-12-22T09:44:48.995Z,54.80
2022-12-22T09:45:49.073Z,48.90
2022-12-22T09:46:48.986Z,49.80
2022-12-22T09:47:48.984Z,51.80
2022-12-22T09:48:48.979Z,50.60
2022-12-22T09:49:48.973Z,50.20
2022-12-22T09:50:48.972Z,50.30
2022-12-22T09:51:48.988Z,52.70
2022-12-22T09:52:48.963Z,56.10
2022-12-22T09:53:48.960Z,51.60
2022-12-22T09:54:48.959Z,52.80
2022-12-22T09:55:48.953Z,49.80
2022-12-22T09:56:48.957Z,51.80
2022-12-22T09:57:48.953Z,55.40
2022-12-22T09:58:48.960Z,56.30
2022-12-22T09:59:48.937Z,52.00
2022-12-22T10:00:48.974Z,50.90
2022-12-22T10:01:49.012Z,51.00
2022-12-22T10:02:48.934Z,52.60
2022-12-22T10:03:49.017Z,52.30
2022-12-22T10:04:48.912Z,50.00
2022-12-22T10:05:48.910Z,50.20
2022-12-22T10:06:48.904Z,50.80
2022-12-22T10:07:48.920Z,52.70
2022-12-22T10:08:48.894Z,52.80
2022-12-22T10:09:51.285Z,50.70
2022-12-22T10:10:48.893Z,52.20
2022-12-22T10:11:48.886Z,49.50
2022-12-22T10:12:48.879Z,52.30
2022-12-22T10:13:48.887Z,50.80
2022-12-22T10:14:48.894Z,51.80
2022-12-22T10:15:48.878Z,53.70
2022-12-22T10:16:48.939Z,49.50
2022-12-22T10:17:48.862Z,50.80
2022-12-22T10:18:48.857Z,49.80
2022-12-22T10:19:48.853Z,52.30
2022-12-22T10:20:48.847Z,50.10
2022-12-22T10:21:48.844Z,50.90
2022-12-22T10:22:48.849Z,49.60
2022-12-22T10:23:48.836Z,51.80
2022-12-22T10:24:48.834Z,50.00
2022-12-22T10:26:48.822Z,51.90
2022-12-22T10:27:51.565Z,51.70
2022-12-22T10:28:48.820Z,51.90
2022-12-22T10:29:48.835Z,49.50
2022-12-22T10:30:48.831Z,50.10
2022-12-22T10:31:48.867Z,48.90
2022-12-22T10:32:48.808Z,52.40
2022-12-22T10:33:48.804Z,52.50
2022-12-22T10:34:48.793Z,55.60
2022-12-22T10:35:48.795Z,52.00
2022-12-22T10:36:48.782Z,51.00
2022-12-22T10:37:48.782Z,49.80
2022-12-22T10:38:48.777Z,53.70
2022-12-22T10:39:48.776Z,52.40
2022-12-22T10:40:48.776Z,53.00
2022-12-22T10:41:48.798Z,54.90
2022-12-22T10:42:48.757Z,50.90
2022-12-22T10:43:48.755Z,54.20
2022-12-22T10:44:48.782Z,56.60
2022-12-22T10:45:48.796Z,49.80
2022-12-22T10:46:48.760Z,52.90
2022-12-22T10:47:48.738Z,52.00
2022-12-22T10:48:48.743Z,52.90
2022-12-22T10:49:48.738Z,50.40
2022-12-22T10:50:48.731Z,50.90
2022-12-22T10:51:48.723Z,53.10
2022-12-22T10:52:48.724Z,54.00
2022-12-22T10:53:48.725Z,54.90
2022-12-22T10:54:48.710Z,55.50
2022-12-22T10:55:48.705Z,55.30
2022-12-22T10:56:48.701Z,53.40
2022-12-22T10:57:48.709Z,53.80
2022-12-22T10:58:48.695Z,54.20
2022-12-22T10:59:48.688Z,52.30
2022-12-22T11:00:48.684Z,55.70
2022-12-22T11:01:48.864Z,55.80
2022-12-22T11:02:48.895Z,53.70
2022-12-22T11:03:48.713Z,53.90
2022-12-22T11:04:48.672Z,54.60
2022-12-22T11:05:48.667Z,56.60
2022-12-22T11:06:48.669Z,53.10
2022-12-22T11:07:48.686Z,57.10
2022-12-22T11:08:51.508Z,56.80
2022-12-22T11:09:48.671Z,55.10
2022-12-22T11:10:48.648Z,51.50
2022-12-22T11:11:48.650Z,55.50
2022-12-22T11:12:48.635Z,55.20
2022-12-22T11:13:48.634Z,56.20
2022-12-22T11:14:48.628Z,55.70
2022-12-22T11:15:48.625Z,58.10
2022-12-22T11:16:48.655Z,53.70
2022-12-22T11:17:48.623Z,60.60
2022-12-22T11:18:48.659Z,60.70
2022-12-22T11:19:48.616Z,59.50
2022-12-22T11:20:48.603Z,71.90
2022-12-22T11:21:48.612Z,62.10
2022-12-22T11:22:48.598Z,64.20
2022-12-22T11:23:48.597Z,68.30
2022-12-22T11:24:48.590Z,67.10
2022-12-22T11:25:48.587Z,68.10
2022-12-22T11:26:48.586Z,70.00
2022-12-22T11:27:48.585Z,69.90
2022-12-22T11:28:48.584Z,70.20
2022-12-22T11:29:48.572Z,68.70
2022-12-22T11:30:48.602Z,67.10
2022-12-22T11:31:48.768Z,66.70
2022-12-22T11:32:48.568Z,66.30
2022-12-22T11:33:48.554Z,63.10
2022-12-22T11:34:48.573Z,63.30
2022-12-22T11:35:48.546Z,59.20
2022-12-22T11:36:48.565Z,59.90
2022-12-22T11:37:48.567Z,53.70
2022-12-22T11:38:48.537Z,55.40
2022-12-22T11:39:48.543Z,52.20
2022-12-22T11:40:48.541Z,47.40
2022-12-22T11:41:48.534Z,53.20
2022-12-22T11:42:48.515Z,49.70
2022-12-22T11:43:48.520Z,44.70
2022-12-22T11:44:48.512Z,48.30
2022-12-22T11:45:48.522Z,46.50
2022-12-22T11:46:48.589Z,49.10
2022-12-22T11:47:48.498Z,42.30
2022-12-22T11:48:48.503Z,45.50
2022-12-22T11:49:48.489Z,45.60
2022-12-22T11:51:01.518Z,41.30
2022-12-22T11:51:48.481Z,39.70
2022-12-22T11:52:48.531Z,42.30
2022-12-22T11:53:48.480Z,40.40
2022-12-22T11:54:48.474Z,41.00
2022-12-22T11:55:48.470Z,39.50
2022-12-22T11:56:48.480Z,41.10
2022-12-22T11:57:48.474Z,38.70
2022-12-22T11:58:48.481Z,40.90
2022-12-22T11:59:48.457Z,41.80
2022-12-22T12:01:17.529Z,40.40
2022-12-22T12:01:48.540Z,39.40
2022-12-22T12:02:48.515Z,38.20
2022-12-22T12:03:48.497Z,37.10
2022-12-22T12:04:48.440Z,34.50
2022-12-22T12:05:48.437Z,32.70
2022-12-22T12:06:48.455Z,32.90
2022-12-22T12:07:48.437Z,33.10
2022-12-22T12:08:48.426Z,32.90
2022-12-22T12:09:48.417Z,32.90
2022-12-22T12:10:48.409Z,33.00
2022-12-22T12:11:48.407Z,32.50
2022-12-22T12:12:48.413Z,31.00
2022-12-22T12:13:48.401Z,34.40
2022-12-22T12:14:48.405Z,31.80
2022-12-22T12:15:48.518Z,32.80
2022-12-22T12:16:48.389Z,32.00
2022-12-22T12:17:48.389Z,29.90
2022-12-22T12:18:48.379Z,29.80
2022-12-22T12:19:48.379Z,33.00
2022-12-22T12:20:48.388Z,32.30
2022-12-22T12:21:48.367Z,33.30
2022-12-22T12:22:48.392Z,35.20
2022-12-22T12:23:48.362Z,35.30
2022-12-22T12:24:48.379Z,35.00
2022-12-22T12:25:48.357Z,32.40
2022-12-22T12:26:48.367Z,35.50
2022-12-22T12:27:48.346Z,34.90
2022-12-22T12:28:48.353Z,34.50
2022-12-22T12:30:06.246Z,38.30
2022-12-22T12:30:48.333Z,38.60
2022-12-22T12:31:48.677Z,37.80
2022-12-22T12:32:48.337Z,36.20
2022-12-22T12:33:48.320Z,37.30
2022-12-22T12:34:48.321Z,38.00
2022-12-22T12:35:48.320Z,36.20
2022-12-22T12:36:48.313Z,37.00
2022-12-22T12:37:48.307Z,34.70
2022-12-22T12:39:48.298Z,30.50
2022-12-22T12:40:48.297Z,29.40
2022-12-22T12:41:48.305Z,30.60
2022-12-22T12:42:48.295Z,29.60
2022-12-22T12:43:48.283Z,28.00
2022-12-22T12:44:48.284Z,29.40
2022-12-22T12:45:48.275Z,28.60
2022-12-22T12:46:48.346Z,27.40
2022-12-22T12:47:48.266Z,27.40
2022-12-22T12:48:48.273Z,25.10
2022-12-22T12:49:48.260Z,25.90
2022-12-22T12:50:48.257Z,26.30
2022-12-22T12:51:48.261Z,27.70
2022-12-22T12:52:48.249Z,24.70
2022-12-22T12:53:48.260Z,25.80
2022-12-22T12:54:48.263Z,25.70
2022-12-22T12:55:48.238Z,26.10
2022-12-22T12:56:48.233Z,26.80
2022-12-22T12:57:48.238Z,25.30
2022-12-22T12:58:48.227Z,26.60
2022-12-22T12:59:48.232Z,27.30
2022-12-22T13:00:52.491Z,26.40
2022-12-22T13:01:48.424Z,24.70
2022-12-22T13:02:48.373Z,26.10
2022-12-22T13:04:05.329Z,24.90
2022-12-22T13:04:48.284Z,23.40
2022-12-22T13:05:48.206Z,23.10
2022-12-22T13:06:51.105Z,23.00
2022-12-22T13:07:48.190Z,22.50
2022-12-22T13:08:48.187Z,22.20
2022-12-22T13:09:51.210Z,20.10